createdAt,value
2018-09-28T00:02:23.386Z,75.07
2018-09-28T00:04:51.651Z,75.89
2018-09-28T00:07:19.895Z,75.17
2018-09-28T00:09:48.138Z,75.84
2018-09-28T00:12:16.381Z,74.77
2018-09-28T00:14:44.715Z,74.45
2018-09-28T00:17:12.937Z,76.97
2018-09-28T00:19:41.226Z,75.57
2018-09-28T00:22:09.475Z,75.43
2018-09-28T00:24:37.704Z,75.96
2018-09-28T00:27:05.947Z,75.62
2018-09-28T00:29:34.174Z,77.24
2018-09-28T00:32:02.455Z,77.54
2018-09-28T00:34:30.671Z,77.55
2018-09-28T00:36:58.946Z,77.78
2018-09-28T00:39:27.218Z,77.53
2018-09-28T00:41:55.441Z,77.50
2018-09-28T00:44:23.683Z,77.91
2018-09-28T00:46:51.950Z,77.89
2018-09-28T00:49:20.174Z,77.59
2018-09-28T00:51:48.405Z,79.04
2018-09-28T00:54:16.687Z,78.48
2018-09-28T00:56:44.901Z,78.04
2018-09-28T00:59:13.147Z,78.02
2018-09-28T01:01:41.421Z,78.71
2018-09-28T01:04:09.677Z,78.25
2018-09-28T01:06:37.912Z,78.96
2018-09-28T01:09:08.744Z,77.48
2018-09-28T01:11:36.971Z,77.19
2018-09-28T01:14:05.222Z,78.24
2018-09-28T01:19:29.880Z,76.79
2018-09-28T01:21:58.169Z,78.06
2018-09-28T01:24:26.327Z,76.86
2018-09-28T01:26:54.541Z,78.72
2018-09-28T01:29:22.724Z,77.98
2018-09-28T01:31:50.924Z,78.03
2018-09-28T01:34:19.107Z,78.66
2018-09-28T01:36:47.333Z,76.63
2018-09-28T01:39:15.541Z,77.75
2018-09-28T01:41:43.741Z,78.07
2018-09-28T01:44:11.972Z,78.59
2018-09-28T01:46:40.159Z,78.60
2018-09-28T01:49:08.371Z,77.37
2018-09-28T01:51:36.568Z,77.99
2018-09-28T01:54:04.763Z,79.17
2018-09-28T01:56:32.935Z,79.17
2018-09-28T01:59:01.153Z,78.56
2018-09-28T02:01:29.352Z,78.12
2018-09-28T02:03:57.560Z,77.92
2018-09-28T02:06:25.765Z,78.10
2018-09-28T02:08:53.967Z,78.04
2018-09-28T02:11:22.168Z,78.13
2018-09-28T02:13:50.356Z,77.61
2018-09-28T02:16:18.571Z,76.80
2018-09-28T02:18:46.758Z,78.51
2018-09-28T02:21:14.943Z,77.37
2018-09-28T02:23:43.150Z,76.64
2018-09-28T02:26:11.393Z,76.39
2018-09-28T02:28:39.568Z,77.42
2018-09-28T02:31:07.782Z,77.52
2018-09-28T02:33:35.971Z,76.45
2018-09-28T02:36:04.216Z,77.24
2018-09-28T02:38:32.425Z,76.71
2018-09-28T02:41:00.628Z,77.47
2018-09-28T02:43:28.816Z,78.60
2018-09-28T02:45:57.028Z,78.10
2018-09-28T02:48:26.359Z,77.97
2018-09-28T02:50:54.567Z,78.02
2018-09-28T02:53:22.851Z,77.30
2018-09-28T02:55:51.035Z,79.45
2018-09-28T02:58:19.266Z,78.54
2018-09-28T03:00:48.158Z,77.99
2018-09-28T03:03:16.657Z,78.43
2018-09-28T03:05:44.958Z,78.27
2018-09-28T03:08:13.151Z,77.77
2018-09-28T03:10:41.337Z,76.22
2018-09-28T03:13:09.570Z,77.37
2018-09-28T03:15:38.098Z,77.69
2018-09-28T03:18:06.717Z,77.60
2018-09-28T03:20:35.012Z,78.06
2018-09-28T03:23:03.233Z,78.35
2018-09-28T03:25:31.496Z,78.80
2018-09-28T03:27:59.793Z,79.49
2018-09-28T03:30:28.024Z,78.19
2018-09-28T03:32:56.241Z,77.86
2018-09-28T03:35:24.445Z,78.49
2018-09-28T03:37:52.640Z,77.69
2018-09-28T03:40:20.871Z,78.50
2018-09-28T03:42:49.040Z,77.56
2018-09-28T03:45:17.317Z,78.65
2018-09-28T03:47:47.627Z,78.45
2018-09-28T03:50:16.004Z,79.94
2018-09-28T03:52:44.232Z,78.58
2018-09-28T03:55:12.972Z,79.73
2018-09-28T03:57:41.217Z,79.10
2018-09-28T04:00:10.501Z,79.10
2018-09-28T04:02:39.483Z,78.08
2018-09-28T04:05:07.720Z,77.81
2018-09-28T04:07:36.357Z,78.30
2018-09-28T04:10:05.001Z,78.92
2018-09-28T04:12:33.270Z,78.78
2018-09-28T04:15:01.522Z,77.92
2018-09-28T04:17:29.684Z,78.58
2018-09-28T04:19:57.887Z,79.07
2018-09-28T04:22:26.125Z,77.69
2018-09-28T04:24:54.440Z,78.66
2018-09-28T04:27:22.704Z,78.65
2018-09-28T04:29:50.992Z,78.81
2018-09-28T04:32:19.177Z,78.19
2018-09-28T04:34:47.393Z,78.22
2018-09-28T04:37:15.588Z,77.93
2018-09-28T04:39:43.824Z,79.87
2018-09-28T04:42:12.244Z,79.31
2018-09-28T04:44:40.415Z,79.27
2018-09-28T04:47:08.607Z,78.58
2018-09-28T04:49:37.059Z,80.14
2018-09-28T04:52:05.247Z,79.85
2018-09-28T04:54:33.482Z,79.30
2018-09-28T04:57:01.724Z,79.34
2018-09-28T04:59:29.968Z,79.64
2018-09-28T05:01:58.394Z,80.76
2018-09-28T05:04:26.676Z,80.12
2018-09-28T05:06:54.901Z,80.82
2018-09-28T05:09:23.112Z,79.28
2018-09-28T05:11:53.373Z,80.12
2018-09-28T05:14:21.609Z,80.55
2018-09-28T05:16:49.856Z,80.20
2018-09-28T05:19:18.068Z,81.11
2018-09-28T05:21:46.268Z,79.69
2018-09-28T05:24:14.475Z,80.66
2018-09-28T05:26:42.678Z,80.87
2018-09-28T05:29:11.188Z,79.56
2018-09-28T05:31:39.456Z,80.97
2018-09-28T05:34:07.608Z,80.42
2018-09-28T05:36:35.821Z,78.92
2018-09-28T05:39:05.560Z,80.54
2018-09-28T05:41:33.785Z,80.47
2018-09-28T05:44:01.985Z,80.03
2018-09-28T05:46:30.242Z,80.87
2018-09-28T05:48:58.540Z,81.75
2018-09-28T05:51:26.811Z,81.18
2018-09-28T05:53:54.964Z,80.94
2018-09-28T05:56:23.209Z,81.92
2018-09-28T05:58:56.793Z,80.64
2018-09-28T06:01:30.274Z,81.13
2018-09-28T06:04:03.836Z,81.69
2018-09-28T06:06:32.105Z,82.21
2018-09-28T06:09:00.342Z,82.02
2018-09-28T06:11:28.559Z,81.81
2018-09-28T06:13:56.813Z,82.13
2018-09-28T06:16:25.026Z,81.01
2018-09-28T06:18:53.331Z,80.82
2018-09-28T06:21:21.534Z,81.30
2018-09-28T06:23:49.783Z,81.12
2018-09-28T06:26:18.010Z,81.57
2018-09-28T06:28:46.200Z,82.08
2018-09-28T06:31:14.433Z,81.53
2018-09-28T06:33:42.734Z,81.85
2018-09-28T06:36:11.002Z,83.54
2018-09-28T06:38:39.140Z,81.99
2018-09-28T06:41:07.387Z,83.65
2018-09-28T06:43:35.586Z,80.00
2018-09-28T06:46:03.794Z,81.53
2018-09-28T06:48:32.006Z,81.51
2018-09-28T06:51:00.192Z,78.80
2018-09-28T06:53:28.418Z,76.92
2018-09-28T06:55:56.628Z,79.57
2018-09-28T06:58:24.813Z,77.98
2018-09-28T07:00:53.004Z,77.10
2018-09-28T07:03:21.203Z,76.46
2018-09-28T07:05:49.443Z,75.77
2018-09-28T07:08:17.592Z,75.86
2018-09-28T07:10:45.771Z,74.48
2018-09-28T07:13:14.015Z,73.12
2018-09-28T07:15:42.204Z,74.98
2018-09-28T07:18:10.470Z,75.01
2018-09-28T07:20:38.712Z,75.28
2018-09-28T07:23:06.923Z,75.78
2018-09-28T07:25:35.137Z,77.34
2018-09-28T07:28:03.331Z,76.70
2018-09-28T07:30:31.521Z,79.97
2018-09-28T07:32:59.717Z,78.44
2018-09-28T07:35:27.931Z,78.52
2018-09-28T07:37:56.170Z,80.57
2018-09-28T07:40:24.403Z,79.30
2018-09-28T07:42:52.626Z,79.56
2018-09-28T07:45:20.821Z,78.51
2018-09-28T07:47:49.044Z,78.43
2018-09-28T07:50:17.268Z,78.78
2018-09-28T07:52:45.472Z,77.42
2018-09-28T07:55:13.708Z,77.49
2018-09-28T07:57:41.904Z,77.54
2018-09-28T08:00:10.108Z,77.27
2018-09-28T08:02:38.339Z,78.57
2018-09-28T08:05:06.583Z,78.05
2018-09-28T08:07:34.783Z,77.97
2018-09-28T08:10:02.992Z,77.31
2018-09-28T08:12:31.202Z,77.33
2018-09-28T08:14:59.407Z,76.84
2018-09-28T08:17:27.598Z,76.29
2018-09-28T08:19:55.860Z,76.02
2018-09-28T08:22:24.048Z,76.51
2018-09-28T08:24:52.240Z,76.66
2018-09-28T08:27:21.500Z,75.35
2018-09-28T08:29:49.815Z,75.50
2018-09-28T08:32:18.069Z,76.32
2018-09-28T08:34:46.308Z,75.68
2018-09-28T08:37:14.511Z,75.52
2018-09-28T08:39:42.736Z,75.07
2018-09-28T08:42:11.069Z,74.14
2018-09-28T08:44:39.356Z,74.12
2018-09-28T08:47:07.628Z,74.69
2018-09-28T08:49:35.849Z,74.56
2018-09-28T08:52:04.088Z,74.01
2018-09-28T08:54:32.343Z,74.26
2018-09-28T08:57:02.658Z,75.02
2018-09-28T08:59:30.855Z,74.89
2018-09-28T09:01:59.140Z,75.22
2018-09-28T09:04:27.446Z,74.73
2018-09-28T09:06:55.692Z,74.38
2018-09-28T09:09:24.923Z,74.58
2018-09-28T09:11:53.180Z,75.15
2018-09-28T09:14:21.444Z,75.05
2018-09-28T09:16:49.665Z,75.85
2018-09-28T09:19:17.887Z,75.54
2018-09-28T09:21:46.148Z,76.75
2018-09-28T09:24:14.359Z,77.67
2018-09-28T09:26:43.660Z,78.26
2018-09-28T09:29:11.866Z,79.54
2018-09-28T09:31:40.091Z,81.97
2018-09-28T09:34:08.400Z,83.88
2018-09-28T09:36:36.684Z,85.58
2018-09-28T09:39:06.714Z,87.27
2018-09-28T09:41:34.927Z,88.12
2018-09-28T09:44:03.187Z,89.97
2018-09-28T09:46:31.381Z,90.24
2018-09-28T09:48:59.699Z,88.72
2018-09-28T09:51:28.008Z,89.49
2018-09-28T09:53:56.224Z,90.22
2018-09-28T09:56:24.449Z,89.69
2018-09-28T09:58:52.668Z,90.14
2018-09-28T10:01:26.279Z,89.52
2018-09-28T10:03:54.500Z,91.03
2018-09-28T10:06:22.708Z,90.37
2018-09-28T10:08:50.938Z,90.99
2018-09-28T10:11:19.185Z,91.03
2018-09-28T10:13:51.505Z,92.03
2018-09-28T10:16:19.851Z,91.77
2018-09-28T10:18:48.056Z,90.84
2018-09-28T10:21:16.286Z,91.93
2018-09-28T10:23:44.568Z,91.84
2018-09-28T10:26:12.797Z,91.88
2018-09-28T10:28:40.981Z,92.39
2018-09-28T10:31:09.212Z,93.46
2018-09-28T10:33:37.410Z,92.36
2018-09-28T10:36:05.605Z,92.48
2018-09-28T10:38:33.799Z,92.20
2018-09-28T10:41:02.116Z,92.37
2018-09-28T10:43:30.218Z,92.31
2018-09-28T10:45:58.406Z,92.35
2018-09-28T10:48:26.613Z,93.40
2018-09-28T10:50:54.921Z,92.93
2018-09-28T10:53:23.061Z,93.56
2018-09-28T10:55:51.271Z,93.57
2018-09-28T10:58:19.522Z,94.05
2018-09-28T11:00:47.705Z,93.67
2018-09-28T11:03:16.021Z,93.78
2018-09-28T11:05:44.256Z,93.58
2018-09-28T11:08:12.505Z,93.77
2018-09-28T11:10:40.704Z,93.09
2018-09-28T11:13:08.984Z,93.69
2018-09-28T11:15:37.780Z,93.58
2018-09-28T11:18:05.920Z,93.76
2018-09-28T11:20:34.142Z,93.78
2018-09-28T11:23:02.370Z,93.84
2018-09-28T11:25:30.596Z,93.25
2018-09-28T11:27:58.787Z,93.56
2018-09-28T11:30:27.009Z,94.26
2018-09-28T11:32:55.282Z,93.16
2018-09-28T11:35:23.537Z,93.55
2018-09-28T11:37:51.769Z,93.62
2018-09-28T11:40:19.980Z,93.94
2018-09-28T11:42:48.182Z,94.44
2018-09-28T11:45:16.426Z,95.10
2018-09-28T11:47:44.605Z,93.96
2018-09-28T11:50:12.807Z,93.62
2018-09-28T11:52:41.025Z,93.18
2018-09-28T11:55:09.230Z,93.01
2018-09-28T11:57:37.464Z,92.65
2018-09-28T12:00:05.744Z,93.57
2018-09-28T12:02:34.021Z,93.57
2018-09-28T12:05:02.267Z,93.66
2018-09-28T12:07:30.395Z,93.53
2018-09-28T12:09:58.642Z,93.30
2018-09-28T12:12:26.864Z,94.13
2018-09-28T12:14:55.077Z,94.43
2018-09-28T12:17:23.509Z,94.78
2018-09-28T12:19:51.709Z,94.60
2018-09-28T12:22:19.935Z,94.91
2018-09-28T12:24:48.293Z,95.26
2018-09-28T12:27:16.389Z,95.17
2018-09-28T12:29:44.623Z,94.26
2018-09-28T12:32:12.797Z,94.97
2018-09-28T12:34:41.021Z,95.41
2018-09-28T12:37:09.241Z,94.05
2018-09-28T12:39:41.336Z,95.01
2018-09-28T12:42:12.942Z,94.24
2018-09-28T12:44:41.153Z,94.22
2018-09-28T12:47:09.316Z,95.12
2018-09-28T12:49:37.532Z,94.20
2018-09-28T12:52:05.748Z,94.62
2018-09-28T12:54:33.977Z,94.34
2018-09-28T12:57:02.172Z,93.59
2018-09-28T12:59:30.451Z,93.62
2018-09-28T13:01:58.663Z,94.67
2018-09-28T13:04:26.872Z,94.27
2018-09-28T13:06:55.110Z,93.87
2018-09-28T13:09:23.326Z,92.51
2018-09-28T13:11:51.542Z,92.73
2018-09-28T13:14:19.833Z,92.33
2018-09-28T13:16:47.968Z,93.57
2018-09-28T13:19:16.245Z,92.35
2018-09-28T13:21:44.479Z,93.00
2018-09-28T13:24:12.701Z,91.97
2018-09-28T13:26:40.897Z,92.44
2018-09-28T13:29:09.226Z,92.13
2018-09-28T13:31:37.481Z,91.60
2018-09-28T13:34:05.892Z,90.85
2018-09-28T13:36:34.122Z,91.52
2018-09-28T13:39:02.504Z,90.50
2018-09-28T13:41:30.776Z,90.40
2018-09-28T13:43:59.013Z,88.95
2018-09-28T13:46:27.290Z,88.70
2018-09-28T13:48:56.502Z,89.70
2018-09-28T13:51:24.763Z,89.01
2018-09-28T13:53:53.246Z,89.44
2018-09-28T13:56:21.419Z,89.36
2018-09-28T13:58:49.588Z,89.04
2018-09-28T14:01:20.964Z,88.30
2018-09-28T14:03:49.231Z,88.33
2018-09-28T14:06:17.488Z,87.11
2018-09-28T14:08:45.733Z,86.10
2018-09-28T14:11:13.935Z,87.05
2018-09-28T14:13:42.113Z,86.88
2018-09-28T14:16:10.434Z,86.99
2018-09-28T14:18:38.617Z,84.57
2018-09-28T14:21:06.856Z,83.54
2018-09-28T14:23:35.216Z,83.90
2018-09-28T14:26:03.416Z,82.60
2018-09-28T14:28:31.698Z,82.46
2018-09-28T14:30:59.823Z,83.35
2018-09-28T14:33:27.998Z,84.12
2018-09-28T14:35:56.188Z,83.07
2018-09-28T14:38:24.557Z,82.23
2018-09-28T14:40:52.796Z,80.78
2018-09-28T14:43:20.967Z,80.34
2018-09-28T14:45:49.304Z,80.29
2018-09-28T14:48:17.753Z,78.90
2018-09-28T14:50:46.010Z,78.60
2018-09-28T14:53:14.234Z,77.91
2018-09-28T14:55:42.576Z,77.11
2018-09-28T14:58:10.784Z,77.00
2018-09-28T15:00:39.117Z,77.32
2018-09-28T15:03:07.283Z,77.12
2018-09-28T15:05:35.487Z,78.46
2018-09-28T15:08:03.688Z,76.96
2018-09-28T15:10:31.919Z,76.20
2018-09-28T15:13:00.068Z,76.17
2018-09-28T15:15:28.342Z,77.73
2018-09-28T15:17:56.477Z,77.54
2018-09-28T15:20:24.681Z,76.51
2018-09-28T15:22:52.909Z,75.61
2018-09-28T15:25:21.080Z,77.69
2018-09-28T15:27:49.312Z,75.84
2018-09-28T15:30:17.691Z,76.30
2018-09-28T15:32:45.965Z,76.26
2018-09-28T15:35:14.187Z,76.31
2018-09-28T15:37:42.355Z,75.70
2018-09-28T15:40:10.563Z,76.51
2018-09-28T15:42:38.771Z,76.36
2018-09-28T15:45:07.010Z,75.05
2018-09-28T15:47:35.239Z,75.60
2018-09-28T15:50:03.416Z,76.12
2018-09-28T15:52:31.608Z,75.14
2018-09-28T15:54:59.793Z,74.72
2018-09-28T15:57:28.030Z,75.08
2018-09-28T15:59:56.256Z,75.47
2018-09-28T16:02:24.508Z,75.24
2018-09-28T16:04:52.731Z,74.74
2018-09-28T16:07:20.944Z,74.04
2018-09-28T16:09:49.129Z,73.93
2018-09-28T16:12:17.320Z,75.69
2018-09-28T16:14:45.584Z,75.32
2018-09-28T16:17:13.817Z,75.09
2018-09-28T16:19:42.019Z,75.55
2018-09-28T16:22:10.251Z,75.89
2018-09-28T16:24:38.469Z,74.83
2018-09-28T16:27:07.393Z,75.87
2018-09-28T16:29:35.604Z,76.73
2018-09-28T16:32:03.847Z,76.03
2018-09-28T16:34:32.196Z,75.35
2018-09-28T16:37:00.393Z,75.46
2018-09-28T16:39:28.681Z,75.35
2018-09-28T16:41:56.851Z,75.36
2018-09-28T16:44:25.058Z,76.12
2018-09-28T16:46:53.239Z,76.87
2018-09-28T16:49:21.427Z,76.25
2018-09-28T16:51:50.709Z,76.72
2018-09-28T16:54:18.920Z,77.81
2018-09-28T16:56:47.319Z,77.58
2018-09-28T16:59:15.517Z,76.82
2018-09-28T17:01:43.705Z,77.84
2018-09-28T17:04:11.945Z,76.75
2018-09-28T17:06:40.188Z,77.02
2018-09-28T17:09:09.213Z,77.79
2018-09-28T17:11:37.382Z,76.69
2018-09-28T17:14:05.593Z,77.78
2018-09-28T17:16:33.810Z,78.32
2018-09-28T17:19:02.090Z,79.19
2018-09-28T17:21:35.132Z,79.72
2018-09-28T17:24:03.365Z,79.49
2018-09-28T17:26:31.568Z,79.89
2018-09-28T17:28:59.748Z,80.20
2018-09-28T17:31:27.951Z,80.47
2018-09-28T17:33:56.224Z,80.83
2018-09-28T17:36:24.444Z,80.92
2018-09-28T17:38:52.656Z,80.61
2018-09-28T17:41:20.933Z,81.60
2018-09-28T17:43:49.093Z,81.30
2018-09-28T17:46:17.317Z,81.45
2018-09-28T17:48:45.617Z,82.62
2018-09-28T17:51:13.804Z,81.83
2018-09-28T17:53:43.036Z,82.85
2018-09-28T17:56:11.247Z,83.11
2018-09-28T17:58:39.458Z,82.42
2018-09-28T18:01:07.653Z,82.13
2018-09-28T18:03:35.890Z,81.79
2018-09-28T18:06:04.040Z,82.44
2018-09-28T18:08:32.280Z,82.76
2018-09-28T18:11:00.478Z,82.46
2018-09-28T18:13:28.800Z,82.88
2018-09-28T18:15:57.006Z,82.65
2018-09-28T18:18:25.211Z,82.80
2018-09-28T18:20:53.450Z,83.31
2018-09-28T18:23:21.647Z,81.84
2018-09-28T18:25:49.852Z,82.19
2018-09-28T18:28:18.049Z,82.91
2018-09-28T18:30:46.243Z,82.48
2018-09-28T18:33:14.459Z,82.62
2018-09-28T18:35:42.653Z,83.97
2018-09-28T18:38:10.868Z,83.48
2018-09-28T18:40:39.076Z,84.13
2018-09-28T18:43:07.365Z,82.49
2018-09-28T18:45:35.602Z,83.77
2018-09-28T18:48:03.824Z,83.99
2018-09-28T18:50:32.001Z,83.34
2018-09-28T18:53:00.176Z,83.24
2018-09-28T18:55:28.352Z,82.94
2018-09-28T18:57:56.532Z,82.74
2018-09-28T19:00:24.736Z,82.25
2018-09-28T19:02:52.972Z,83.08
2018-09-28T19:05:21.176Z,82.69
2018-09-28T19:07:49.417Z,83.58
2018-09-28T19:10:17.616Z,83.23
2018-09-28T19:12:45.933Z,83.68
2018-09-28T19:15:13.993Z,82.65
2018-09-28T19:17:42.188Z,82.52
2018-09-28T19:20:10.391Z,82.83
2018-09-28T19:22:38.602Z,82.87
2018-09-28T19:25:06.920Z,83.09
2018-09-28T19:27:35.117Z,83.60
2018-09-28T19:30:03.335Z,83.35
2018-09-28T19:32:31.515Z,83.41
2018-09-28T19:34:59.727Z,83.32
2018-09-28T19:37:27.925Z,83.20
2018-09-28T19:39:56.160Z,82.83
2018-09-28T19:42:24.372Z,82.79
2018-09-28T19:44:52.548Z,83.51
2018-09-28T19:47:20.768Z,82.74
2018-09-28T19:49:48.948Z,82.83
2018-09-28T19:52:20.428Z,83.62
2018-09-28T19:54:48.601Z,82.25
2018-09-28T19:57:16.830Z,82.64
2018-09-28T19:59:45.129Z,83.61
2018-09-28T20:02:13.345Z,83.07
2018-09-28T20:04:41.546Z,82.61
2018-09-28T20:07:09.849Z,83.44
2018-09-28T20:09:40.056Z,84.17
2018-09-28T20:12:08.401Z,82.66
2018-09-28T20:14:36.660Z,82.95
2018-09-28T20:17:04.923Z,83.09
2018-09-28T20:19:33.207Z,83.13
2018-09-28T20:22:01.412Z,81.78
2018-09-28T20:24:29.684Z,83.38
2018-09-28T20:26:57.897Z,82.91
2018-09-28T20:29:26.088Z,83.25
2018-09-28T20:31:54.288Z,83.20
2018-09-28T20:34:22.480Z,84.32
2018-09-28T20:36:50.799Z,84.38
2018-09-28T20:39:19.925Z,82.95
2018-09-28T20:41:48.137Z,84.53
2018-09-28T20:44:16.316Z,84.73
2018-09-28T20:46:44.539Z,82.59
2018-09-28T20:49:12.741Z,82.49
2018-09-28T20:51:40.964Z,82.45
2018-09-28T20:54:09.149Z,83.35
2018-09-28T20:56:37.341Z,85.02
2018-09-28T20:59:05.567Z,84.15
2018-09-28T21:01:33.823Z,84.94
2018-09-28T21:04:02.052Z,84.25
2018-09-28T21:06:30.247Z,83.56
2018-09-28T21:08:58.437Z,83.86
2018-09-28T21:11:26.611Z,83.11
2018-09-28T21:13:54.811Z,84.02
2018-09-28T21:16:23.005Z,84.36
2018-09-28T21:18:51.205Z,83.03
2018-09-28T21:21:19.422Z,83.29
2018-09-28T21:23:47.628Z,82.72
2018-09-28T21:26:15.827Z,83.65
2018-09-28T21:28:44.029Z,84.18
2018-09-28T21:31:12.224Z,84.22
2018-09-28T21:33:40.391Z,84.25
2018-09-28T21:36:08.579Z,84.98
2018-09-28T21:38:36.789Z,85.32
2018-09-28T21:41:04.995Z,84.65
2018-09-28T21:43:33.208Z,85.21
2018-09-28T21:46:01.406Z,84.72
2018-09-28T21:48:29.604Z,85.22
2018-09-28T21:50:57.842Z,83.97
2018-09-28T21:53:26.053Z,83.95
2018-09-28T21:55:54.274Z,83.34
2018-09-28T21:58:22.525Z,83.09
2018-09-28T22:00:54.795Z,82.79
2018-09-28T22:03:23.024Z,82.31
2018-09-28T22:05:51.213Z,81.76
2018-09-28T22:08:19.449Z,81.05
2018-09-28T22:10:47.635Z,83.31
2018-09-28T22:13:15.826Z,83.28
2018-09-28T22:15:44.024Z,83.04
2018-09-28T22:18:12.219Z,82.58
2018-09-28T22:20:40.403Z,83.93
2018-09-28T22:23:08.588Z,82.80
2018-09-28T22:25:36.789Z,82.55
2018-09-28T22:28:05.059Z,81.63
2018-09-28T22:30:33.288Z,84.45
2018-09-28T22:33:01.463Z,83.12
2018-09-28T22:35:29.647Z,83.49
2018-09-28T22:37:57.861Z,83.63
2018-09-28T22:40:26.032Z,83.07
2018-09-28T22:42:54.221Z,85.14
2018-09-28T22:45:22.407Z,84.08
2018-09-28T22:47:50.613Z,85.43
2018-09-28T22:50:18.804Z,86.54
2018-09-28T22:52:46.998Z,85.87
2018-09-28T22:55:15.203Z,85.11
2018-09-28T22:57:43.392Z,83.57
2018-09-28T23:00:11.601Z,83.01
2018-09-28T23:02:39.825Z,83.85
2018-09-28T23:05:08.020Z,82.21
2018-09-28T23:07:36.213Z,82.61
2018-09-28T23:10:04.454Z,82.51
2018-09-28T23:12:32.632Z,81.62
2018-09-28T23:15:00.801Z,82.76
2018-09-28T23:17:28.983Z,82.45
2018-09-28T23:19:57.168Z,82.81
2018-09-28T23:22:25.368Z,82.30
2018-09-28T23:24:53.588Z,82.82
2018-09-28T23:27:21.764Z,82.18
2018-09-28T23:29:49.957Z,83.49
2018-09-28T23:32:18.148Z,82.18
2018-09-28T23:34:46.348Z,83.33
2018-09-28T23:37:14.544Z,83.40
2018-09-28T23:39:42.739Z,84.59
2018-09-28T23:42:10.978Z,83.34
2018-09-28T23:44:39.164Z,83.19
2018-09-28T23:47:07.354Z,84.33
2018-09-28T23:49:35.529Z,83.95
2018-09-28T23:52:03.716Z,84.66
2018-09-28T23:54:31.913Z,84.36
2018-09-28T23:57:00.100Z,86.52
2018-09-28T23:59:28.295Z,84.10
